Terminal Aerodrome Forecast
Issued by NWS Topeka, KS

Home | Current Version | Previous Version | Graphics & Text | Print | Product List | Glossary On
Versions: 1 2 3 4 5 6 7 8 9 10 11 12 13 14 15 16 17 18 19 20 21 22 23 24
000
FTUS43 KTOP 021738
TAFTOP
TAF
KTOP 021738Z 0218/0318 09006KT P6SM -SHRA VCTS BKN018CB
     FM021900 10006KT P6SM -SHRA VCTS BKN022CB
     FM022000 10006KT P6SM VCTS BKN025CB
     FM022300 VRB04KT P6SM BKN040
     FM030500 VRB02KT 4SM BR BKN015
     FM031400 01005KT P6SM BKN015=

USA.gov is the U.S. government's official web portal to all federal, state and local government web resources and services.